createdAt,value
2018-09-18T00:00:29.639Z,97.20
2018-09-18T00:03:02.467Z,97.20
2018-09-18T00:05:35.096Z,97.10
2018-09-18T00:08:07.910Z,97.10
2018-09-18T00:10:40.869Z,97.00
2018-09-18T00:13:13.597Z,97.00
2018-09-18T00:15:46.395Z,97.30
2018-09-18T00:18:19.151Z,97.00
2018-09-18T00:20:52.120Z,97.20
2018-09-18T00:23:24.992Z,97.20
2018-09-18T00:25:59.766Z,97.40
2018-09-18T00:28:32.616Z,97.50
2018-09-18T00:31:05.681Z,97.60
2018-09-18T00:33:38.565Z,97.80
2018-09-18T00:36:11.473Z,97.80
2018-09-18T00:38:44.264Z,97.90
2018-09-18T00:41:20.475Z,97.90
2018-09-18T00:43:56.133Z,98.00
2018-09-18T00:46:32.263Z,98.10
2018-09-18T00:49:04.976Z,98.10
2018-09-18T00:51:37.894Z,98.20
2018-09-18T00:54:12.922Z,98.60
2018-09-18T00:56:47.376Z,98.40
2018-09-18T00:59:20.344Z,98.50
2018-09-18T01:01:53.133Z,98.70
2018-09-18T01:04:26.042Z,98.90
2018-09-18T01:06:58.770Z,99.00
2018-09-18T01:09:33.273Z,99.40
2018-09-18T01:12:06.287Z,99.20
2018-09-18T01:14:42.048Z,99.40
2018-09-18T01:17:14.836Z,99.70
2018-09-18T01:19:47.737Z,99.50
2018-09-18T01:22:20.575Z,99.60
2018-09-18T01:24:54.325Z,99.60
2018-09-18T01:27:27.768Z,99.60
2018-09-18T01:30:00.674Z,99.60
2018-09-18T01:32:42.959Z,99.60
2018-09-18T01:35:15.763Z,99.60
2018-09-18T01:37:49.280Z,99.50
2018-09-18T01:40:22.156Z,99.50
2018-09-18T01:42:55.622Z,99.50
2018-09-18T01:45:31.122Z,99.50
2018-09-18T01:48:03.949Z,99.50
2018-09-18T01:50:39.000Z,99.50
2018-09-18T01:53:11.912Z,99.50
2018-09-18T01:55:45.560Z,99.50
2018-09-18T01:58:18.609Z,99.40
2018-09-18T02:00:54.720Z,99.40
2018-09-18T02:03:27.309Z,99.40
2018-09-18T02:05:59.950Z,99.50
2018-09-18T02:08:32.533Z,99.40
2018-09-18T02:11:05.175Z,99.70
2018-09-18T02:13:37.901Z,99.40
2018-09-18T02:16:10.563Z,99.40
2018-09-18T02:18:43.272Z,99.40
2018-09-18T02:21:16.019Z,99.40
2018-09-18T02:23:48.704Z,99.40
2018-09-18T02:26:21.439Z,99.30
2018-09-18T02:28:54.070Z,99.30
2018-09-18T02:31:26.778Z,99.30
2018-09-18T02:33:59.424Z,99.50
2018-09-18T02:36:32.076Z,99.20
2018-09-18T02:39:08.743Z,99.20
2018-09-18T02:41:42.293Z,99.20
2018-09-18T02:44:15.843Z,99.20
2018-09-18T02:46:48.704Z,99.20
2018-09-18T02:49:21.649Z,99.30
2018-09-18T02:51:54.451Z,99.20
2018-09-18T02:54:27.184Z,99.20
2018-09-18T02:56:59.972Z,99.20
2018-09-18T02:59:32.831Z,99.20
2018-09-18T03:02:06.470Z,99.10
2018-09-18T03:04:39.403Z,99.10
2018-09-18T03:07:12.214Z,99.10
2018-09-18T03:09:44.992Z,99.10
2018-09-18T03:12:18.319Z,99.00
2018-09-18T03:14:51.252Z,99.00
2018-09-18T03:17:23.907Z,99.00
2018-09-18T03:19:57.183Z,99.00
2018-09-18T03:22:29.860Z,99.00
2018-09-18T03:25:03.311Z,99.00
2018-09-18T03:27:35.970Z,98.90
2018-09-18T03:30:08.648Z,98.80
2018-09-18T03:32:41.358Z,98.90
2018-09-18T03:35:14.140Z,98.80
2018-09-18T03:37:46.821Z,98.90
2018-09-18T03:40:19.490Z,98.90
2018-09-18T03:42:52.773Z,98.90
2018-09-18T03:45:25.422Z,99.00
2018-09-18T03:47:58.056Z,99.10
2018-09-18T03:50:32.094Z,99.40
2018-09-18T03:53:04.745Z,99.10
2018-09-18T03:55:37.385Z,99.20
2018-09-18T03:58:10.049Z,99.20
2018-09-18T04:00:42.724Z,99.30
2018-09-18T04:03:15.394Z,99.30
2018-09-18T04:05:48.089Z,99.40
2018-09-18T04:08:20.961Z,99.30
2018-09-18T04:10:53.677Z,99.40
2018-09-18T04:13:26.439Z,99.30
2018-09-18T04:15:59.164Z,99.20
2018-09-18T04:18:32.557Z,99.30
2018-09-18T04:21:05.405Z,99.40
2018-09-18T04:23:38.262Z,99.40
2018-09-18T04:26:17.015Z,99.40
2018-09-18T04:28:49.723Z,99.40
2018-09-18T04:31:28.655Z,99.50
2018-09-18T04:34:01.491Z,99.50
2018-09-18T04:36:36.164Z,99.50
2018-09-18T04:39:12.353Z,99.60
2018-09-18T04:41:45.228Z,99.60
2018-09-18T04:44:18.647Z,99.60
2018-09-18T04:46:51.402Z,99.60
2018-09-18T04:49:24.200Z,99.60
2018-09-18T04:51:57.115Z,99.60
2018-09-18T04:54:29.943Z,99.60
2018-09-18T04:57:05.741Z,99.90
2018-09-18T04:59:42.407Z,99.70
2018-09-18T05:02:15.125Z,99.70
2018-09-18T05:04:47.858Z,99.60
2018-09-18T05:07:20.539Z,99.60
2018-09-18T05:09:53.222Z,99.60
2018-09-18T05:12:26.042Z,99.70
2018-09-18T05:14:58.756Z,99.90
2018-09-18T05:17:31.698Z,99.60
2018-09-18T05:20:05.366Z,99.50
2018-09-18T05:22:38.149Z,99.50
2018-09-18T05:25:10.857Z,99.40
2018-09-18T05:27:43.508Z,99.40
2018-09-18T05:30:16.248Z,99.40
2018-09-18T05:32:48.950Z,99.50
2018-09-18T05:35:21.726Z,99.50
2018-09-18T05:37:54.459Z,99.60
2018-09-18T05:40:27.161Z,99.60
2018-09-18T05:42:59.882Z,99.70
2018-09-18T05:45:32.676Z,99.60
2018-09-18T05:48:05.449Z,99.60
2018-09-18T05:50:42.967Z,99.70
2018-09-18T05:53:15.600Z,99.70
2018-09-18T05:55:48.289Z,99.60
2018-09-18T05:58:21.054Z,99.60
2018-09-18T06:00:53.826Z,99.70
2018-09-18T06:03:26.577Z,99.60
2018-09-18T06:05:59.536Z,99.40
2018-09-18T06:08:32.232Z,99.20
2018-09-18T06:11:04.936Z,99.00
2018-09-18T06:13:37.566Z,98.90
2018-09-18T06:16:10.659Z,98.80
2018-09-18T06:18:43.401Z,98.70
2018-09-18T06:21:16.066Z,98.70
2018-09-18T06:23:48.844Z,98.50
2018-09-18T06:26:21.783Z,98.50
2018-09-18T06:28:54.554Z,98.60
2018-09-18T06:31:27.326Z,98.50
2018-09-18T06:34:00.695Z,98.70
2018-09-18T06:36:33.597Z,98.10
2018-09-18T06:39:08.240Z,98.10
2018-09-18T06:41:41.311Z,97.80
2018-09-18T06:44:14.132Z,97.50
2018-09-18T06:46:47.221Z,97.20
2018-09-18T06:49:21.732Z,97.40
2018-09-18T06:51:54.648Z,96.90
2018-09-18T06:54:27.507Z,97.00
2018-09-18T06:57:00.292Z,96.90
2018-09-18T06:59:33.641Z,96.60
2018-09-18T07:02:06.554Z,96.50
2018-09-18T07:04:39.578Z,96.30
2018-09-18T07:07:12.416Z,96.00
2018-09-18T07:09:45.186Z,95.90
2018-09-18T07:12:17.932Z,95.50
2018-09-18T07:14:50.807Z,95.40
2018-09-18T07:17:23.658Z,95.20
2018-09-18T07:19:56.532Z,95.00
2018-09-18T07:22:29.379Z,94.70
2018-09-18T07:25:02.232Z,94.70
2018-09-18T07:27:35.216Z,95.00
2018-09-18T07:30:08.891Z,94.10
2018-09-18T07:32:41.689Z,94.10
2018-09-18T07:35:14.491Z,93.70
2018-09-18T07:37:47.179Z,93.50
2018-09-18T07:40:19.983Z,92.90
2018-09-18T07:42:52.866Z,92.90
2018-09-18T07:45:26.526Z,92.60
2018-09-18T07:47:59.238Z,92.40
2018-09-18T07:50:31.929Z,92.00
2018-09-18T07:53:04.946Z,91.80
2018-09-18T07:55:37.690Z,91.60
2018-09-18T07:58:10.364Z,91.40
2018-09-18T08:00:43.083Z,90.90
2018-09-18T08:03:15.819Z,90.90
2018-09-18T08:05:49.218Z,90.60
2018-09-18T08:08:22.165Z,90.30
2018-09-18T08:10:55.974Z,90.20
2018-09-18T08:13:28.655Z,90.00
2018-09-18T08:16:01.407Z,90.00
2018-09-18T08:18:34.047Z,88.80
2018-09-18T08:21:06.795Z,88.70
2018-09-18T08:23:39.487Z,88.20
2018-09-18T08:26:12.326Z,88.70
2018-09-18T08:28:44.988Z,86.80
2018-09-18T08:31:17.663Z,86.80
2018-09-18T08:33:50.392Z,86.60
2018-09-18T08:36:23.007Z,86.30
2018-09-18T08:38:55.708Z,85.30
2018-09-18T08:41:28.503Z,85.00
2018-09-18T08:44:01.264Z,83.90
2018-09-18T08:46:34.393Z,83.00
2018-09-18T08:49:08.627Z,83.20
2018-09-18T08:51:41.431Z,81.70
2018-09-18T08:54:14.177Z,81.20
2018-09-18T08:56:46.851Z,81.80
2018-09-18T08:59:19.655Z,81.40
2018-09-18T09:01:52.713Z,81.20
2018-09-18T09:04:27.769Z,79.40
2018-09-18T09:07:01.347Z,79.80
2018-09-18T09:09:33.992Z,78.70
2018-09-18T09:12:06.758Z,78.10
2018-09-18T09:14:39.511Z,77.60
2018-09-18T09:17:12.273Z,77.90
2018-09-18T09:19:44.996Z,78.20
2018-09-18T09:22:17.780Z,77.50
2018-09-18T09:24:50.770Z,77.20
2018-09-18T09:27:23.541Z,77.50
2018-09-18T09:29:58.389Z,76.60
2018-09-18T09:32:31.146Z,75.80
2018-09-18T09:35:19.409Z,75.00
2018-09-18T09:37:57.823Z,74.90
2018-09-18T09:40:30.684Z,74.20
2018-09-18T09:43:22.447Z,74.50
2018-09-18T09:45:55.610Z,73.60
2018-09-18T09:49:03.863Z,70.80
2018-09-18T09:51:39.162Z,71.50
2018-09-18T09:54:11.869Z,68.90
2018-09-18T09:56:45.162Z,68.80
2018-09-18T09:59:42.036Z,68.50
2018-09-18T10:02:35.598Z,68.20
2018-09-18T10:06:30.682Z,67.30
2018-09-18T10:09:06.188Z,67.50
2018-09-18T10:11:43.514Z,65.70
2018-09-18T10:14:16.239Z,65.00
2018-09-18T10:16:49.255Z,65.00
2018-09-18T10:19:22.089Z,64.90
2018-09-18T10:21:55.846Z,65.20
2018-09-18T10:24:28.588Z,64.00
2018-09-18T10:29:58.867Z,64.50
2018-09-18T10:32:31.679Z,64.60
2018-09-18T10:35:05.140Z,62.50
2018-09-18T10:37:37.815Z,63.00
2018-09-18T10:40:10.518Z,62.00
2018-09-18T10:42:43.153Z,62.50
2018-09-18T10:45:15.880Z,62.20
2018-09-18T10:47:48.538Z,62.20
2018-09-18T10:50:21.554Z,62.30
2018-09-18T10:52:54.266Z,62.60
2018-09-18T10:55:27.070Z,61.60
2018-09-18T10:57:59.723Z,62.10
2018-09-18T11:00:32.945Z,61.30
2018-09-18T11:03:05.767Z,58.60
2018-09-18T11:05:39.034Z,59.00
2018-09-18T11:53:41.847Z,59.60
2018-09-18T11:56:14.608Z,51.40
2018-09-18T11:58:47.945Z,50.70
2018-09-18T12:01:21.714Z,49.80
2018-09-18T12:03:54.494Z,49.90
2018-09-18T12:06:27.179Z,49.80
2018-09-18T12:08:59.895Z,49.00
2018-09-18T12:11:32.862Z,49.10
2018-09-18T12:14:05.674Z,48.90
2018-09-18T12:16:38.335Z,48.50
2018-09-18T12:19:12.102Z,47.80
2018-09-18T12:21:44.792Z,48.70
2018-09-18T12:24:17.508Z,48.10
2018-09-18T12:26:50.289Z,47.60
2018-09-18T12:29:23.047Z,48.80
2018-09-18T12:31:56.701Z,48.20
2018-09-18T12:34:29.333Z,48.00
2018-09-18T12:37:01.990Z,46.90
2018-09-18T17:45:00.880Z,76.40
2018-09-18T17:47:34.997Z,77.00
2018-09-18T17:50:07.820Z,77.60
2018-09-18T17:52:40.546Z,78.10
2018-09-18T17:55:14.766Z,78.70
2018-09-18T17:57:49.089Z,79.20
2018-09-18T18:00:22.822Z,79.90
2018-09-18T18:02:56.151Z,80.60
2018-09-18T18:05:29.856Z,81.20
2018-09-18T18:08:04.310Z,82.10
2018-09-18T18:10:38.130Z,82.80
2018-09-18T18:13:11.679Z,82.70
2018-09-18T18:15:45.173Z,83.00
2018-09-18T18:18:17.937Z,83.50
2018-09-18T18:20:51.309Z,83.90
2018-09-18T18:23:27.933Z,84.00
2018-09-18T18:26:03.438Z,84.50
2018-09-18T18:28:38.611Z,85.30
2018-09-18T18:31:14.068Z,86.20
2018-09-18T18:33:46.877Z,86.70
2018-09-18T18:36:19.726Z,87.60
2018-09-18T18:38:53.977Z,88.00
2018-09-18T18:41:27.775Z,88.50
2018-09-18T18:44:02.806Z,88.90
2018-09-18T18:46:36.562Z,89.50
2018-09-18T18:49:09.551Z,89.80
2018-09-18T18:51:42.440Z,90.10
2018-09-18T18:54:15.867Z,90.20
2018-09-18T18:56:48.675Z,90.30
2018-09-18T18:59:22.069Z,90.40
2018-09-18T19:01:55.097Z,90.50
2018-09-18T19:07:06.493Z,91.00
2018-09-18T19:09:39.419Z,91.20
2018-09-18T19:12:13.380Z,91.40
2018-09-18T19:14:46.287Z,91.40
2018-09-18T19:17:21.565Z,91.60
2018-09-18T19:19:54.488Z,91.80
2018-09-18T19:22:27.545Z,92.00
2018-09-18T19:25:00.526Z,92.10
2018-09-18T19:27:33.797Z,92.20
2018-09-18T19:30:07.155Z,92.10
2018-09-18T19:32:40.958Z,92.50
2018-09-18T19:35:13.972Z,92.10
2018-09-18T19:37:47.406Z,92.00
2018-09-18T19:40:21.235Z,92.10
2018-09-18T19:42:54.883Z,92.20
2018-09-18T19:45:27.999Z,92.10
2018-09-18T19:48:01.481Z,92.20
2018-09-18T19:50:35.308Z,92.20
2018-09-18T19:53:08.235Z,92.20
2018-09-18T19:55:41.178Z,92.10
2018-09-18T19:58:14.018Z,92.00
2018-09-18T20:00:47.106Z,91.90
2018-09-18T20:03:20.850Z,91.70
2018-09-18T20:05:55.515Z,91.60
2018-09-18T20:08:28.298Z,91.50
2018-09-18T20:11:01.429Z,91.40
2018-09-18T20:13:34.167Z,91.30
2018-09-18T20:16:06.918Z,91.40
2018-09-18T20:18:40.285Z,91.30
2018-09-18T20:21:13.092Z,91.40
2018-09-18T20:23:46.505Z,91.40
2018-09-18T20:26:19.155Z,91.40
2018-09-18T20:28:52.439Z,91.50
2018-09-18T20:31:25.458Z,91.60
2018-09-18T20:33:58.513Z,91.80
2018-09-18T20:36:31.667Z,91.80
2018-09-18T20:39:06.558Z,92.00
2018-09-18T20:41:40.065Z,92.00
2018-09-18T20:44:12.769Z,92.10
2018-09-18T20:46:45.450Z,92.20
2018-09-18T20:49:19.015Z,92.40
2018-09-18T20:51:51.710Z,92.50
2018-09-18T20:54:24.549Z,93.00
2018-09-18T20:56:57.223Z,92.60
2018-09-18T20:59:31.460Z,92.70
2018-09-18T21:02:04.564Z,92.90
2018-09-18T21:04:37.364Z,92.90
2018-09-18T21:07:10.148Z,93.00
2018-09-18T21:09:43.916Z,93.00
2018-09-18T21:12:16.536Z,93.00
2018-09-18T21:14:49.248Z,93.10
2018-09-18T21:17:22.651Z,93.10
2018-09-18T21:19:55.649Z,93.10
2018-09-18T21:22:28.247Z,93.30
2018-09-18T21:25:18.362Z,93.40
2018-09-18T21:27:51.053Z,93.40
2018-09-18T21:30:23.771Z,93.70
2018-09-18T21:32:56.432Z,93.80
2018-09-18T21:35:29.084Z,93.90
2018-09-18T21:38:01.787Z,94.10
2018-09-18T21:40:34.458Z,94.10
2018-09-18T21:43:07.093Z,94.20
2018-09-18T21:45:39.793Z,94.20
2018-09-18T21:48:12.420Z,94.30
2018-09-18T21:50:46.396Z,94.50
2018-09-18T21:53:19.117Z,94.50
2018-09-18T21:55:51.779Z,94.60
2018-09-18T21:58:24.484Z,94.60
2018-09-18T22:00:57.568Z,94.70
2018-09-18T22:03:30.365Z,94.80
2018-09-18T22:06:04.443Z,94.80
2018-09-18T22:08:37.067Z,94.90
2018-09-18T22:11:09.797Z,94.90
2018-09-18T22:13:42.489Z,95.00
2018-09-18T22:16:15.105Z,95.10
2018-09-18T22:18:47.986Z,95.20
2018-09-18T22:21:21.037Z,95.40
2018-09-18T22:23:54.266Z,95.40
2018-09-18T22:26:27.034Z,95.50
2018-09-18T22:29:00.579Z,95.50
2018-09-18T22:31:33.235Z,95.50
2018-09-18T22:34:05.973Z,95.50
2018-09-18T22:36:38.723Z,95.60
2018-09-18T22:39:11.319Z,95.60
2018-09-18T22:41:44.003Z,95.60
2018-09-18T22:44:16.615Z,95.60
2018-09-18T22:46:49.279Z,95.70
2018-09-18T22:49:22.109Z,95.80
2018-09-18T22:51:54.801Z,95.90
2018-09-18T22:54:27.509Z,95.90
2018-09-18T22:57:00.145Z,95.90
2018-09-18T22:59:32.767Z,96.00
2018-09-18T23:02:05.531Z,96.10
2018-09-18T23:04:38.445Z,96.10
2018-09-18T23:07:11.770Z,95.90
2018-09-18T23:09:44.527Z,96.20
2018-09-18T23:12:17.160Z,96.20
2018-09-18T23:14:50.140Z,96.20
2018-09-18T23:17:22.859Z,96.30
2018-09-18T23:19:55.499Z,96.40
2018-09-18T23:22:28.257Z,96.40
2018-09-18T23:25:00.887Z,96.50
2018-09-18T23:27:33.496Z,96.50
2018-09-18T23:30:06.136Z,96.50
2018-09-18T23:32:38.769Z,96.50
2018-09-18T23:35:11.403Z,96.60
2018-09-18T23:37:43.973Z,96.60
2018-09-18T23:40:16.609Z,96.60
2018-09-18T23:42:49.302Z,96.70
2018-09-18T23:45:22.049Z,96.60
2018-09-18T23:47:54.769Z,96.80
2018-09-18T23:50:27.490Z,96.90
2018-09-18T23:53:00.156Z,96.90
2018-09-18T23:55:32.788Z,96.90
2018-09-18T23:58:05.526Z,96.80
